createdAt,value
2019-01-31T00:09:09.819Z,21.93
2019-01-31T00:19:23.250Z,21.40
2019-01-31T00:30:10.186Z,18.43
2019-01-31T00:40:25.558Z,21.33
2019-01-31T00:50:47.621Z,21.97
2019-01-31T01:01:15.538Z,18.33
2019-01-31T01:11:50.739Z,19.70
2019-01-31T01:22:08.222Z,25.13
2019-01-31T01:32:43.702Z,24.80
2019-01-31T01:43:13.534Z,23.33
2019-01-31T01:54:22.817Z,22.23
2019-01-31T02:04:53.238Z,26.83
2019-01-31T02:15:16.539Z,22.17
2019-01-31T02:26:01.322Z,16.77
2019-01-31T02:36:16.175Z,19.00
2019-01-31T02:47:01.499Z,18.63
2019-01-31T02:57:48.498Z,18.10
2019-01-31T03:08:11.675Z,17.57
2019-01-31T03:18:36.942Z,15.50
2019-01-31T03:29:27.902Z,16.60
2019-01-31T03:39:47.128Z,14.40
2019-01-31T03:50:38.383Z,15.77
2019-01-31T04:01:18.099Z,18.53
2019-01-31T04:11:21.671Z,15.03
2019-01-31T04:21:25.258Z,18.30
2019-01-31T04:31:28.840Z,18.07
2019-01-31T04:41:32.440Z,18.77
2019-01-31T04:51:36.004Z,20.77
2019-01-31T05:01:39.622Z,24.00
2019-01-31T05:11:43.224Z,24.50
2019-01-31T05:21:46.799Z,23.30
2019-01-31T05:31:50.371Z,25.67
2019-01-31T05:41:53.964Z,21.67
2019-01-31T05:51:57.521Z,26.13
2019-01-31T06:02:01.094Z,20.10
2019-01-31T06:12:04.797Z,28.07
2019-01-31T06:22:11.402Z,25.23
2019-01-31T06:32:14.989Z,27.60
2019-01-31T06:42:18.571Z,23.43
2019-01-31T06:52:22.202Z,27.83
2019-01-31T07:02:25.782Z,24.87
2019-01-31T07:12:29.377Z,29.53
2019-01-31T07:22:32.961Z,26.70
2019-01-31T07:32:36.565Z,26.73
2019-01-31T07:42:40.153Z,27.87
2019-01-31T07:52:44.110Z,27.90
2019-01-31T08:02:47.931Z,29.93
2019-01-31T08:12:51.538Z,27.00
2019-01-31T08:22:55.105Z,24.20
2019-01-31T08:32:58.691Z,25.53
2019-01-31T08:43:02.271Z,22.97
2019-01-31T08:53:05.843Z,22.23
2019-01-31T09:03:09.421Z,19.97
2019-01-31T09:13:13.092Z,20.87
2019-01-31T09:23:42.270Z,23.17
2019-01-31T09:34:31.159Z,20.67
2019-01-31T09:45:07.559Z,16.27
2019-01-31T09:55:37.227Z,19.53
2019-01-31T10:05:52.617Z,18.80
2019-01-31T10:16:28.354Z,20.77
2019-01-31T10:27:02.374Z,20.10
2019-01-31T10:37:38.483Z,19.73
2019-01-31T10:48:22.159Z,19.17
2019-01-31T10:59:09.362Z,19.47
2019-01-31T11:09:38.726Z,19.03
2019-01-31T11:20:09.683Z,17.50
2019-01-31T11:30:39.351Z,16.10
2019-01-31T11:41:05.122Z,13.90
2019-01-31T11:51:50.506Z,11.23
2019-01-31T12:01:54.074Z,11.00
2019-01-31T12:11:57.740Z,10.10
2019-01-31T12:22:01.307Z,11.20
2019-01-31T12:32:04.887Z,10.40
2019-01-31T12:42:08.455Z,12.93
2019-01-31T12:52:12.038Z,11.63
2019-01-31T13:02:15.609Z,10.17
2019-01-31T13:12:19.212Z,11.67
2019-01-31T13:22:22.795Z,8.57
2019-01-31T13:32:26.554Z,9.23
2019-01-31T13:42:30.160Z,11.03
2019-01-31T13:52:33.744Z,8.33
2019-01-31T14:02:37.306Z,11.03
2019-01-31T14:12:40.882Z,7.20
2019-01-31T14:22:44.454Z,9.17
2019-01-31T14:32:48.720Z,8.13
2019-01-31T14:42:52.286Z,7.90
2019-01-31T14:52:57.071Z,6.87
2019-01-31T15:03:00.737Z,6.50
2019-01-31T15:13:04.390Z,5.87
2019-01-31T15:23:07.979Z,4.70
2019-01-31T15:33:13.169Z,5.23
2019-01-31T15:43:16.770Z,4.03
2019-01-31T15:53:22.262Z,4.30
2019-01-31T16:03:26.868Z,3.00
2019-01-31T16:13:30.457Z,2.53
2019-01-31T16:23:34.141Z,3.67
2019-01-31T16:33:51.986Z,3.07
2019-01-31T16:43:55.615Z,2.57
2019-01-31T16:53:59.255Z,3.43
2019-01-31T17:04:02.945Z,5.50
2019-01-31T17:14:06.542Z,3.83
2019-01-31T17:24:10.134Z,5.37
2019-01-31T17:34:16.133Z,5.00
2019-01-31T17:44:19.908Z,5.30
2019-01-31T17:54:23.499Z,6.10
2019-01-31T18:04:27.222Z,4.97
2019-01-31T18:14:30.842Z,5.10
2019-01-31T18:24:34.447Z,5.83
2019-01-31T18:34:38.021Z,5.83
2019-01-31T18:44:43.701Z,4.83
2019-01-31T18:54:46.962Z,5.90
2019-01-31T19:04:50.535Z,8.17
2019-01-31T19:14:54.186Z,7.83
2019-01-31T19:24:57.774Z,9.60
2019-01-31T19:35:01.357Z,6.73
2019-01-31T19:45:06.989Z,8.00
2019-01-31T19:55:10.571Z,7.20
2019-01-31T20:05:15.038Z,6.87
2019-01-31T20:15:18.619Z,6.80
2019-01-31T20:25:22.466Z,6.17
2019-01-31T20:35:26.088Z,5.07
2019-01-31T20:45:29.718Z,6.30
2019-01-31T20:55:33.292Z,6.87
2019-01-31T21:05:36.949Z,8.73
2019-01-31T21:15:40.534Z,6.23
2019-01-31T21:25:44.106Z,7.70
2019-01-31T21:35:47.705Z,9.30
2019-01-31T21:45:51.278Z,8.47
2019-01-31T21:55:54.884Z,11.80
2019-01-31T22:05:58.488Z,9.80
2019-01-31T22:16:02.502Z,9.20
2019-01-31T22:26:06.161Z,10.77
2019-01-31T22:36:10.344Z,10.40
2019-01-31T22:46:14.327Z,9.30
2019-01-31T22:56:18.602Z,8.20
2019-01-31T23:06:22.556Z,5.70
2019-01-31T23:16:26.223Z,10.27
2019-01-31T23:26:29.803Z,11.60
2019-01-31T23:36:33.414Z,8.90
2019-01-31T23:46:37.003Z,9.53
2019-01-31T23:56:40.588Z,12.17
